sensor_id;sensor_type;location;lat;lon;timestamp;P1;durP1;ratioP1;P2;durP2;ratioP2
19942;SDS011;10133;50.956;17.276;2023-03-01T00:01:01;63.13;;;27.40;;
19942;SDS011;10133;50.956;17.276;2023-03-01T00:03:29;58.77;;;25.30;;
19942;SDS011;10133;50.956;17.276;2023-03-01T00:05:56;62.77;;;27.37;;
19942;SDS011;10133;50.956;17.276;2023-03-01T00:08:23;63.10;;;27.80;;
19942;SDS011;10133;50.956;17.276;2023-03-01T00:11:07;64.10;;;28.07;;
19942;SDS011;10133;50.956;17.276;2023-03-01T00:13:52;68.07;;;27.67;;
19942;SDS011;10133;50.956;17.276;2023-03-01T00:16:23;66.47;;;28.70;;
19942;SDS011;10133;50.956;17.276;2023-03-01T00:18:53;62.10;;;27.70;;
19942;SDS011;10133;50.956;17.276;2023-03-01T00:21:20;68.83;;;29.63;;
19942;SDS011;10133;50.956;17.276;2023-03-01T00:23:48;66.77;;;29.27;;
19942;SDS011;10133;50.956;17.276;2023-03-01T00:26:16;62.73;;;28.53;;
19942;SDS011;10133;50.956;17.276;2023-03-01T00:28:44;64.13;;;27.83;;
19942;SDS011;10133;50.956;17.276;2023-03-01T00:31:13;67.43;;;28.47;;
19942;SDS011;10133;50.956;17.276;2023-03-01T00:33:42;68.03;;;27.93;;
19942;SDS011;10133;50.956;17.276;2023-03-01T00:36:11;62.33;;;28.83;;
19942;SDS011;10133;50.956;17.276;2023-03-01T00:38:41;64.50;;;28.50;;
19942;SDS011;10133;50.956;17.276;2023-03-01T00:41:13;64.83;;;28.37;;
19942;SDS011;10133;50.956;17.276;2023-03-01T00:43:41;65.53;;;28.07;;
19942;SDS011;10133;50.956;17.276;2023-03-01T00:46:12;66.53;;;29.03;;
19942;SDS011;10133;50.956;17.276;2023-03-01T00:48:41;67.97;;;28.23;;
19942;SDS011;10133;50.956;17.276;2023-03-01T00:51:08;63.73;;;28.20;;
19942;SDS011;10133;50.956;17.276;2023-03-01T00:53:39;69.17;;;29.20;;
19942;SDS011;10133;50.956;17.276;2023-03-01T00:56:07;71.23;;;31.03;;
19942;SDS011;10133;50.956;17.276;2023-03-01T00:58:35;73.00;;;31.97;;
19942;SDS011;10133;50.956;17.276;2023-03-01T01:01:12;82.80;;;33.70;;
19942;SDS011;10133;50.956;17.276;2023-03-01T01:03:48;84.97;;;35.67;;
19942;SDS011;10133;50.956;17.276;2023-03-01T01:06:21;86.53;;;35.80;;
19942;SDS011;10133;50.956;17.276;2023-03-01T01:08:53;86.17;;;35.23;;
19942;SDS011;10133;50.956;17.276;2023-03-01T01:11:22;87.23;;;35.80;;
19942;SDS011;10133;50.956;17.276;2023-03-01T01:13:51;90.10;;;37.37;;
19942;SDS011;10133;50.956;17.276;2023-03-01T01:16:19;86.53;;;36.57;;
19942;SDS011;10133;50.956;17.276;2023-03-01T01:18:48;89.80;;;36.20;;
19942;SDS011;10133;50.956;17.276;2023-03-01T01:21:16;92.53;;;39.10;;
19942;SDS011;10133;50.956;17.276;2023-03-01T01:23:45;89.90;;;38.37;;
19942;SDS011;10133;50.956;17.276;2023-03-01T01:26:14;87.87;;;37.40;;
19942;SDS011;10133;50.956;17.276;2023-03-01T01:28:43;100.03;;;39.87;;
19942;SDS011;10133;50.956;17.276;2023-03-01T01:31:10;95.10;;;38.80;;
19942;SDS011;10133;50.956;17.276;2023-03-01T01:33:37;89.27;;;39.00;;
19942;SDS011;10133;50.956;17.276;2023-03-01T01:36:05;95.70;;;39.73;;
19942;SDS011;10133;50.956;17.276;2023-03-01T01:38:33;99.03;;;39.80;;
19942;SDS011;10133;50.956;17.276;2023-03-01T01:41:00;88.43;;;38.57;;
19942;SDS011;10133;50.956;17.276;2023-03-01T01:43:29;91.23;;;38.67;;
19942;SDS011;10133;50.956;17.276;2023-03-01T01:46:25;92.53;;;38.80;;
19942;SDS011;10133;50.956;17.276;2023-03-01T01:51:48;117.70;;;47.37;;
19942;SDS011;10133;50.956;17.276;2023-03-01T01:54:19;107.40;;;42.93;;
19942;SDS011;10133;50.956;17.276;2023-03-01T01:56:55;109.30;;;43.33;;
19942;SDS011;10133;50.956;17.276;2023-03-01T01:59:26;111.57;;;44.57;;
19942;SDS011;10133;50.956;17.276;2023-03-01T02:01:57;114.67;;;43.60;;
19942;SDS011;10133;50.956;17.276;2023-03-01T02:04:29;114.17;;;46.37;;
19942;SDS011;10133;50.956;17.276;2023-03-01T02:07:01;118.30;;;47.00;;
19942;SDS011;10133;50.956;17.276;2023-03-01T02:09:40;119.13;;;46.97;;
19942;SDS011;10133;50.956;17.276;2023-03-01T02:12:13;131.00;;;50.53;;
19942;SDS011;10133;50.956;17.276;2023-03-01T02:14:43;125.20;;;51.30;;
19942;SDS011;10133;50.956;17.276;2023-03-01T02:17:11;124.50;;;49.17;;
19942;SDS011;10133;50.956;17.276;2023-03-01T02:19:42;116.90;;;48.67;;
19942;SDS011;10133;50.956;17.276;2023-03-01T02:22:22;124.20;;;50.47;;
19942;SDS011;10133;50.956;17.276;2023-03-01T02:30:29;120.43;;;47.97;;
19942;SDS011;10133;50.956;17.276;2023-03-01T02:32:57;117.63;;;46.00;;
19942;SDS011;10133;50.956;17.276;2023-03-01T02:35:35;118.20;;;48.37;;
19942;SDS011;10133;50.956;17.276;2023-03-01T02:38:06;116.67;;;47.20;;
19942;SDS011;10133;50.956;17.276;2023-03-01T02:40:34;109.67;;;44.13;;
19942;SDS011;10133;50.956;17.276;2023-03-01T02:43:04;120.87;;;48.33;;
19942;SDS011;10133;50.956;17.276;2023-03-01T02:45:34;116.97;;;47.17;;
19942;SDS011;10133;50.956;17.276;2023-03-01T02:48:01;114.47;;;45.00;;
19942;SDS011;10133;50.956;17.276;2023-03-01T02:53:01;114.60;;;46.80;;
19942;SDS011;10133;50.956;17.276;2023-03-01T02:55:35;115.57;;;45.80;;
19942;SDS011;10133;50.956;17.276;2023-03-01T02:58:02;104.57;;;42.50;;
19942;SDS011;10133;50.956;17.276;2023-03-01T03:00:34;102.83;;;41.83;;
19942;SDS011;10133;50.956;17.276;2023-03-01T03:03:06;98.30;;;39.37;;
19942;SDS011;10133;50.956;17.276;2023-03-01T03:05:33;91.30;;;36.80;;
19942;SDS011;10133;50.956;17.276;2023-03-01T03:08:01;91.50;;;38.43;;
19942;SDS011;10133;50.956;17.276;2023-03-01T03:10:30;95.27;;;38.77;;
19942;SDS011;10133;50.956;17.276;2023-03-01T03:13:01;89.63;;;35.40;;
19942;SDS011;10133;50.956;17.276;2023-03-01T03:15:29;90.03;;;37.87;;
19942;SDS011;10133;50.956;17.276;2023-03-01T03:17:57;99.73;;;37.23;;
19942;SDS011;10133;50.956;17.276;2023-03-01T03:20:26;90.07;;;35.97;;
19942;SDS011;10133;50.956;17.276;2023-03-01T03:22:54;95.70;;;40.03;;
19942;SDS011;10133;50.956;17.276;2023-03-01T03:25:23;87.23;;;36.67;;
19942;SDS011;10133;50.956;17.276;2023-03-01T03:27:51;88.83;;;36.50;;
19942;SDS011;10133;50.956;17.276;2023-03-01T03:30:26;92.20;;;39.30;;
19942;SDS011;10133;50.956;17.276;2023-03-01T03:32:57;102.30;;;40.70;;
19942;SDS011;10133;50.956;17.276;2023-03-01T03:35:27;101.13;;;41.13;;
19942;SDS011;10133;50.956;17.276;2023-03-01T03:38:00;100.63;;;40.83;;
19942;SDS011;10133;50.956;17.276;2023-03-01T03:43:01;92.43;;;38.97;;
19942;SDS011;10133;50.956;17.276;2023-03-01T03:45:29;96.63;;;38.10;;
19942;SDS011;10133;50.956;17.276;2023-03-01T03:48:00;113.80;;;47.43;;
19942;SDS011;10133;50.956;17.276;2023-03-01T03:50:27;121.63;;;49.57;;
19942;SDS011;10133;50.956;17.276;2023-03-01T03:52:54;122.93;;;51.13;;
19942;SDS011;10133;50.956;17.276;2023-03-01T03:55:21;134.83;;;57.27;;
19942;SDS011;10133;50.956;17.276;2023-03-01T03:57:48;145.33;;;59.30;;
19942;SDS011;10133;50.956;17.276;2023-03-01T04:00:18;154.27;;;65.37;;
19942;SDS011;10133;50.956;17.276;2023-03-01T04:02:47;158.10;;;62.60;;
19942;SDS011;10133;50.956;17.276;2023-03-01T04:05:15;154.40;;;60.70;;
19942;SDS011;10133;50.956;17.276;2023-03-01T04:07:44;127.40;;;53.63;;
19942;SDS011;10133;50.956;17.276;2023-03-01T04:10:13;138.00;;;56.47;;
19942;SDS011;10133;50.956;17.276;2023-03-01T04:12:41;130.13;;;51.63;;
19942;SDS011;10133;50.956;17.276;2023-03-01T04:15:11;124.07;;;50.67;;
19942;SDS011;10133;50.956;17.276;2023-03-01T04:17:44;123.80;;;51.00;;
19942;SDS011;10133;50.956;17.276;2023-03-01T04:20:14;125.63;;;50.17;;
19942;SDS011;10133;50.956;17.276;2023-03-01T04:22:58;121.70;;;47.37;;
19942;SDS011;10133;50.956;17.276;2023-03-01T04:25:38;116.33;;;46.83;;
19942;SDS011;10133;50.956;17.276;2023-03-01T04:28:09;114.63;;;45.53;;
19942;SDS011;10133;50.956;17.276;2023-03-01T04:30:37;117.27;;;46.97;;
19942;SDS011;10133;50.956;17.276;2023-03-01T04:33:05;111.57;;;44.70;;
19942;SDS011;10133;50.956;17.276;2023-03-01T04:35:34;117.63;;;46.30;;
19942;SDS011;10133;50.956;17.276;2023-03-01T04:38:02;108.03;;;43.13;;
19942;SDS011;10133;50.956;17.276;2023-03-01T04:40:30;102.80;;;41.37;;
19942;SDS011;10133;50.956;17.276;2023-03-01T04:42:57;100.00;;;40.40;;
19942;SDS011;10133;50.956;17.276;2023-03-01T04:45:24;118.97;;;45.10;;
19942;SDS011;10133;50.956;17.276;2023-03-01T04:47:51;135.60;;;52.20;;
19942;SDS011;10133;50.956;17.276;2023-03-01T04:50:21;128.60;;;51.20;;
19942;SDS011;10133;50.956;17.276;2023-03-01T04:52:50;132.10;;;54.07;;
19942;SDS011;10133;50.956;17.276;2023-03-01T04:55:18;136.97;;;52.47;;
19942;SDS011;10133;50.956;17.276;2023-03-01T04:57:45;133.50;;;51.70;;
19942;SDS011;10133;50.956;17.276;2023-03-01T05:00:13;141.00;;;53.17;;
19942;SDS011;10133;50.956;17.276;2023-03-01T05:05:15;128.03;;;48.93;;
19942;SDS011;10133;50.956;17.276;2023-03-01T05:07:42;120.47;;;48.27;;
19942;SDS011;10133;50.956;17.276;2023-03-01T05:10:09;123.70;;;45.57;;
19942;SDS011;10133;50.956;17.276;2023-03-01T05:12:36;113.57;;;44.23;;
19942;SDS011;10133;50.956;17.276;2023-03-01T05:15:04;103.83;;;42.77;;
19942;SDS011;10133;50.956;17.276;2023-03-01T05:17:33;111.43;;;42.60;;
19942;SDS011;10133;50.956;17.276;2023-03-01T05:20:00;109.30;;;43.43;;
19942;SDS011;10133;50.956;17.276;2023-03-01T05:22:29;110.10;;;43.77;;
19942;SDS011;10133;50.956;17.276;2023-03-01T05:24:56;103.33;;;42.67;;
19942;SDS011;10133;50.956;17.276;2023-03-01T05:27:23;96.77;;;40.50;;
19942;SDS011;10133;50.956;17.276;2023-03-01T05:29:50;115.87;;;43.53;;
19942;SDS011;10133;50.956;17.276;2023-03-01T05:32:17;96.07;;;41.03;;
19942;SDS011;10133;50.956;17.276;2023-03-01T05:34:44;100.83;;;40.87;;
19942;SDS011;10133;50.956;17.276;2023-03-01T05:37:12;99.13;;;40.40;;
19942;SDS011;10133;50.956;17.276;2023-03-01T05:39:40;100.30;;;40.10;;
19942;SDS011;10133;50.956;17.276;2023-03-01T05:42:09;96.27;;;40.33;;
19942;SDS011;10133;50.956;17.276;2023-03-01T05:44:37;92.10;;;38.93;;
19942;SDS011;10133;50.956;17.276;2023-03-01T05:47:05;87.50;;;36.80;;
19942;SDS011;10133;50.956;17.276;2023-03-01T05:49:32;98.20;;;40.00;;
19942;SDS011;10133;50.956;17.276;2023-03-01T05:51:58;98.40;;;40.53;;
19942;SDS011;10133;50.956;17.276;2023-03-01T05:54:25;101.17;;;40.83;;
19942;SDS011;10133;50.956;17.276;2023-03-01T05:56:52;93.50;;;39.17;;
19942;SDS011;10133;50.956;17.276;2023-03-01T05:59:19;95.27;;;37.93;;
19942;SDS011;10133;50.956;17.276;2023-03-01T06:01:46;96.83;;;40.13;;
19942;SDS011;10133;50.956;17.276;2023-03-01T06:04:13;92.20;;;39.17;;
19942;SDS011;10133;50.956;17.276;2023-03-01T06:06:40;94.63;;;40.10;;
19942;SDS011;10133;50.956;17.276;2023-03-01T06:09:07;94.60;;;38.90;;
19942;SDS011;10133;50.956;17.276;2023-03-01T06:11:35;124.03;;;49.00;;
19942;SDS011;10133;50.956;17.276;2023-03-01T06:14:03;126.03;;;47.63;;
19942;SDS011;10133;50.956;17.276;2023-03-01T06:16:32;150.63;;;53.90;;
19942;SDS011;10133;50.956;17.276;2023-03-01T06:18:59;152.57;;;56.23;;
19942;SDS011;10133;50.956;17.276;2023-03-01T06:21:26;152.73;;;55.70;;
19942;SDS011;10133;50.956;17.276;2023-03-01T06:23:53;129.30;;;48.07;;
19942;SDS011;10133;50.956;17.276;2023-03-01T06:26:20;119.37;;;44.93;;
19942;SDS011;10133;50.956;17.276;2023-03-01T06:28:47;112.33;;;44.67;;
19942;SDS011;10133;50.956;17.276;2023-03-01T06:31:14;135.03;;;51.30;;
19942;SDS011;10133;50.956;17.276;2023-03-01T06:33:40;172.57;;;62.10;;
19942;SDS011;10133;50.956;17.276;2023-03-01T06:36:07;127.37;;;48.20;;
19942;SDS011;10133;50.956;17.276;2023-03-01T06:38:36;111.27;;;45.93;;
19942;SDS011;10133;50.956;17.276;2023-03-01T06:41:03;118.33;;;47.03;;
19942;SDS011;10133;50.956;17.276;2023-03-01T06:43:30;111.93;;;45.40;;
19942;SDS011;10133;50.956;17.276;2023-03-01T06:45:57;116.97;;;47.97;;
19942;SDS011;10133;50.956;17.276;2023-03-01T06:48:23;116.37;;;47.50;;
19942;SDS011;10133;50.956;17.276;2023-03-01T06:50:50;208.33;;;74.37;;
19942;SDS011;10133;50.956;17.276;2023-03-01T06:53:17;206.87;;;75.57;;
19942;SDS011;10133;50.956;17.276;2023-03-01T06:55:44;147.17;;;56.07;;
19942;SDS011;10133;50.956;17.276;2023-03-01T06:58:11;107.10;;;46.37;;
19942;SDS011;10133;50.956;17.276;2023-03-01T07:00:38;103.00;;;46.57;;
19942;SDS011;10133;50.956;17.276;2023-03-01T07:03:07;111.03;;;49.40;;
19942;SDS011;10133;50.956;17.276;2023-03-01T07:05:35;96.60;;;46.10;;
19942;SDS011;10133;50.956;17.276;2023-03-01T07:08:01;110.70;;;53.30;;
19942;SDS011;10133;50.956;17.276;2023-03-01T07:10:29;111.37;;;53.93;;
19942;SDS011;10133;50.956;17.276;2023-03-01T07:12:56;110.67;;;54.07;;
19942;SDS011;10133;50.956;17.276;2023-03-01T07:15:25;115.57;;;56.43;;
19942;SDS011;10133;50.956;17.276;2023-03-01T07:17:52;116.20;;;57.50;;
19942;SDS011;10133;50.956;17.276;2023-03-01T07:20:19;109.40;;;54.83;;
19942;SDS011;10133;50.956;17.276;2023-03-01T07:22:52;104.17;;;55.10;;
19942;SDS011;10133;50.956;17.276;2023-03-01T07:25:24;111.30;;;56.73;;
19942;SDS011;10133;50.956;17.276;2023-03-01T07:27:51;125.27;;;61.27;;
19942;SDS011;10133;50.956;17.276;2023-03-01T07:30:20;119.80;;;60.23;;
19942;SDS011;10133;50.956;17.276;2023-03-01T07:32:47;123.00;;;61.90;;
19942;SDS011;10133;50.956;17.276;2023-03-01T07:35:14;129.27;;;65.60;;
19942;SDS011;10133;50.956;17.276;2023-03-01T07:37:41;120.03;;;62.60;;
19942;SDS011;10133;50.956;17.276;2023-03-01T07:40:08;114.43;;;61.53;;
19942;SDS011;10133;50.956;17.276;2023-03-01T07:42:36;112.73;;;62.80;;
19942;SDS011;10133;50.956;17.276;2023-03-01T07:45:04;125.43;;;63.83;;
19942;SDS011;10133;50.956;17.276;2023-03-01T07:47:31;125.78;;;70.53;;
19942;SDS011;10133;50.956;17.276;2023-03-01T07:49:59;127.05;;;70.57;;
19942;SDS011;10133;50.956;17.276;2023-03-01T07:52:27;139.48;;;71.40;;
19942;SDS011;10133;50.956;17.276;2023-03-01T07:54:54;115.10;;;66.43;;
19942;SDS011;10133;50.956;17.276;2023-03-01T07:57:21;104.25;;;63.45;;
19942;SDS011;10133;50.956;17.276;2023-03-01T07:59:48;97.13;;;59.05;;
19942;SDS011;10133;50.956;17.276;2023-03-01T08:02:15;85.10;;;54.22;;
19942;SDS011;10133;50.956;17.276;2023-03-01T08:04:42;83.60;;;50.00;;
19942;SDS011;10133;50.956;17.276;2023-03-01T08:07:09;87.25;;;54.33;;
19942;SDS011;10133;50.956;17.276;2023-03-01T08:09:37;80.97;;;48.38;;
19942;SDS011;10133;50.956;17.276;2023-03-01T08:12:04;69.38;;;47.83;;
19942;SDS011;10133;50.956;17.276;2023-03-01T08:14:32;70.97;;;46.72;;
19942;SDS011;10133;50.956;17.276;2023-03-01T08:16:59;75.72;;;50.38;;
19942;SDS011;10133;50.956;17.276;2023-03-01T08:19:26;74.97;;;50.10;;
19942;SDS011;10133;50.956;17.276;2023-03-01T08:21:54;80.05;;;51.92;;
19942;SDS011;10133;50.956;17.276;2023-03-01T08:24:24;75.55;;;51.17;;
19942;SDS011;10133;50.956;17.276;2023-03-01T08:26:51;78.75;;;52.42;;
19942;SDS011;10133;50.956;17.276;2023-03-01T08:29:18;82.68;;;56.05;;
19942;SDS011;10133;50.956;17.276;2023-03-01T08:31:45;97.45;;;63.03;;
19942;SDS011;10133;50.956;17.276;2023-03-01T08:34:14;98.30;;;62.85;;
19942;SDS011;10133;50.956;17.276;2023-03-01T08:36:42;90.55;;;59.40;;
19942;SDS011;10133;50.956;17.276;2023-03-01T08:39:12;81.15;;;53.17;;
19942;SDS011;10133;50.956;17.276;2023-03-01T08:41:41;61.17;;;44.72;;
19942;SDS011;10133;50.956;17.276;2023-03-01T08:44:09;59.42;;;42.92;;
19942;SDS011;10133;50.956;17.276;2023-03-01T08:46:38;61.83;;;44.30;;
19942;SDS011;10133;50.956;17.276;2023-03-01T08:49:07;54.53;;;38.33;;
19942;SDS011;10133;50.956;17.276;2023-03-01T08:51:35;48.88;;;36.67;;
19942;SDS011;10133;50.956;17.276;2023-03-01T08:54:06;51.45;;;37.15;;
19942;SDS011;10133;50.956;17.276;2023-03-01T08:56:37;50.75;;;37.35;;
19942;SDS011;10133;50.956;17.276;2023-03-01T08:59:04;51.20;;;38.55;;
19942;SDS011;10133;50.956;17.276;2023-03-01T09:01:31;94.40;;;61.78;;
19942;SDS011;10133;50.956;17.276;2023-03-01T09:03:59;72.10;;;47.45;;
19942;SDS011;10133;50.956;17.276;2023-03-01T09:06:26;51.20;;;39.00;;
19942;SDS011;10133;50.956;17.276;2023-03-01T09:08:53;53.40;;;38.70;;
19942;SDS011;10133;50.956;17.276;2023-03-01T09:11:21;62.67;;;45.22;;
19942;SDS011;10133;50.956;17.276;2023-03-01T09:13:49;57.50;;;41.47;;
19942;SDS011;10133;50.956;17.276;2023-03-01T09:16:17;59.13;;;45.45;;
19942;SDS011;10133;50.956;17.276;2023-03-01T09:18:48;67.78;;;44.50;;
19942;SDS011;10133;50.956;17.276;2023-03-01T09:21:17;56.20;;;41.85;;
19942;SDS011;10133;50.956;17.276;2023-03-01T09:24:02;55.15;;;41.63;;
19942;SDS011;10133;50.956;17.276;2023-03-01T09:26:29;51.75;;;39.13;;
19942;SDS011;10133;50.956;17.276;2023-03-01T09:28:56;42.92;;;31.80;;
19942;SDS011;10133;50.956;17.276;2023-03-01T09:31:24;42.53;;;31.30;;
19942;SDS011;10133;50.956;17.276;2023-03-01T09:33:52;45.25;;;32.53;;
19942;SDS011;10133;50.956;17.276;2023-03-01T09:36:20;41.75;;;33.17;;
19942;SDS011;10133;50.956;17.276;2023-03-01T09:38:51;41.53;;;30.80;;
19942;SDS011;10133;50.956;17.276;2023-03-01T09:44:00;33.85;;;26.55;;
19942;SDS011;10133;50.956;17.276;2023-03-01T09:46:36;32.97;;;25.30;;
19942;SDS011;10133;50.956;17.276;2023-03-01T09:49:12;29.90;;;23.70;;
19942;SDS011;10133;50.956;17.276;2023-03-01T09:51:48;30.20;;;22.17;;
19942;SDS011;10133;50.956;17.276;2023-03-01T09:54:36;28.85;;;20.10;;
19942;SDS011;10133;50.956;17.276;2023-03-01T09:57:26;23.05;;;20.05;;
19942;SDS011;10133;50.956;17.276;2023-03-01T10:02:43;21.17;;;17.38;;
19942;SDS011;10133;50.956;17.276;2023-03-01T10:11:03;17.02;;;14.00;;
19942;SDS011;10133;50.956;17.276;2023-03-01T10:18:43;19.35;;;15.98;;
19942;SDS011;10133;50.956;17.276;2023-03-01T10:21:18;19.83;;;16.73;;
19942;SDS011;10133;50.956;17.276;2023-03-01T10:23:49;17.92;;;14.98;;
19942;SDS011;10133;50.956;17.276;2023-03-01T10:29:14;17.15;;;14.80;;
19942;SDS011;10133;50.956;17.276;2023-03-01T10:31:48;16.42;;;14.57;;
19942;SDS011;10133;50.956;17.276;2023-03-01T10:34:18;17.02;;;13.48;;
19942;SDS011;10133;50.956;17.276;2023-03-01T10:36:55;16.50;;;14.13;;
19942;SDS011;10133;50.956;17.276;2023-03-01T10:39:25;17.40;;;15.07;;
19942;SDS011;10133;50.956;17.276;2023-03-01T10:44:35;17.30;;;14.38;;
19942;SDS011;10133;50.956;17.276;2023-03-01T10:47:12;16.00;;;13.77;;
19942;SDS011;10133;50.956;17.276;2023-03-01T10:50:24;14.68;;;13.10;;
19942;SDS011;10133;50.956;17.276;2023-03-01T10:52:33;17.15;;;14.50;;
19942;SDS011;10133;50.956;17.276;2023-03-01T10:55:04;17.15;;;14.20;;
19942;SDS011;10133;50.956;17.276;2023-03-01T10:57:48;15.73;;;14.05;;
19942;SDS011;10133;50.956;17.276;2023-03-01T11:00:22;15.95;;;13.35;;
19942;SDS011;10133;50.956;17.276;2023-03-01T11:05:25;16.15;;;14.43;;
19942;SDS011;10133;50.956;17.276;2023-03-01T11:07:55;16.60;;;13.95;;
19942;SDS011;10133;50.956;17.276;2023-03-01T11:10:25;16.40;;;13.98;;
19942;SDS011;10133;50.956;17.276;2023-03-01T11:13:17;19.70;;;14.85;;
19942;SDS011;10133;50.956;17.276;2023-03-01T11:15:59;16.50;;;14.10;;
19942;SDS011;10133;50.956;17.276;2023-03-01T11:18:28;21.08;;;15.43;;
19942;SDS011;10133;50.956;17.276;2023-03-01T11:21:12;23.30;;;16.90;;
19942;SDS011;10133;50.956;17.276;2023-03-01T11:23:39;26.05;;;18.95;;
19942;SDS011;10133;50.956;17.276;2023-03-01T11:26:08;24.08;;;16.83;;
19942;SDS011;10133;50.956;17.276;2023-03-01T11:28:38;21.60;;;16.35;;
19942;SDS011;10133;50.956;17.276;2023-03-01T11:31:09;21.10;;;16.38;;
19942;SDS011;10133;50.956;17.276;2023-03-01T11:33:43;24.52;;;17.02;;
19942;SDS011;10133;50.956;17.276;2023-03-01T11:38:53;23.58;;;17.05;;
19942;SDS011;10133;50.956;17.276;2023-03-01T11:41:23;25.98;;;16.73;;
19942;SDS011;10133;50.956;17.276;2023-03-01T11:49:10;27.42;;;18.52;;
19942;SDS011;10133;50.956;17.276;2023-03-01T11:52:11;29.23;;;18.30;;
19942;SDS011;10133;50.956;17.276;2023-03-01T11:57:36;27.80;;;18.47;;
19942;SDS011;10133;50.956;17.276;2023-03-01T12:06:57;26.07;;;16.47;;
19942;SDS011;10133;50.956;17.276;2023-03-01T12:12:31;26.97;;;16.83;;
19942;SDS011;10133;50.956;17.276;2023-03-01T12:15:20;37.83;;;19.70;;
19942;SDS011;10133;50.956;17.276;2023-03-01T12:18:04;34.90;;;18.77;;
19942;SDS011;10133;50.956;17.276;2023-03-01T12:20:44;32.53;;;16.40;;
19942;SDS011;10133;50.956;17.276;2023-03-01T12:23:21;28.57;;;16.10;;
19942;SDS011;10133;50.956;17.276;2023-03-01T12:25:58;24.93;;;14.67;;
19942;SDS011;10133;50.956;17.276;2023-03-01T12:28:40;23.90;;;14.43;;
19942;SDS011;10133;50.956;17.276;2023-03-01T12:45:00;21.30;;;13.27;;
19942;SDS011;10133;50.956;17.276;2023-03-01T12:50:41;25.00;;;14.70;;
19942;SDS011;10133;50.956;17.276;2023-03-01T12:53:16;23.07;;;14.63;;
19942;SDS011;10133;50.956;17.276;2023-03-01T12:55:52;27.47;;;15.57;;
19942;SDS011;10133;50.956;17.276;2023-03-01T13:04:25;23.43;;;14.00;;
19942;SDS011;10133;50.956;17.276;2023-03-01T13:09:48;24.77;;;14.67;;
19942;SDS011;10133;50.956;17.276;2023-03-01T13:17:50;26.93;;;15.07;;
19942;SDS011;10133;50.956;17.276;2023-03-01T13:20:27;29.20;;;15.10;;
19942;SDS011;10133;50.956;17.276;2023-03-01T13:26:04;24.73;;;14.93;;
19942;SDS011;10133;50.956;17.276;2023-03-01T13:30:58;25.57;;;15.33;;
19942;SDS011;10133;50.956;17.276;2023-03-01T13:35:52;20.53;;;13.87;;
19942;SDS011;10133;50.956;17.276;2023-03-01T13:38:44;25.70;;;14.67;;
19942;SDS011;10133;50.956;17.276;2023-03-01T13:41:14;23.70;;;14.50;;
19942;SDS011;10133;50.956;17.276;2023-03-01T13:43:43;21.97;;;13.37;;
19942;SDS011;10133;50.956;17.276;2023-03-01T13:48:44;23.00;;;14.53;;
19942;SDS011;10133;50.956;17.276;2023-03-01T13:51:15;25.53;;;15.17;;
19942;SDS011;10133;50.956;17.276;2023-03-01T13:53:43;23.90;;;14.77;;
19942;SDS011;10133;50.956;17.276;2023-03-01T13:56:17;20.87;;;13.97;;
19942;SDS011;10133;50.956;17.276;2023-03-01T14:01:31;23.27;;;14.27;;
19942;SDS011;10133;50.956;17.276;2023-03-01T14:04:01;22.80;;;14.83;;
19942;SDS011;10133;50.956;17.276;2023-03-01T14:06:33;23.23;;;13.63;;
19942;SDS011;10133;50.956;17.276;2023-03-01T14:14:37;21.87;;;13.57;;
19942;SDS011;10133;50.956;17.276;2023-03-01T14:20:48;18.03;;;11.73;;
19942;SDS011;10133;50.956;17.276;2023-03-01T14:23:01;19.40;;;11.60;;
19942;SDS011;10133;50.956;17.276;2023-03-01T14:25:34;18.77;;;12.30;;
19942;SDS011;10133;50.956;17.276;2023-03-01T14:30:51;24.50;;;13.40;;
19942;SDS011;10133;50.956;17.276;2023-03-01T14:33:22;18.93;;;11.67;;
19942;SDS011;10133;50.956;17.276;2023-03-01T14:36:04;18.67;;;11.00;;
19942;SDS011;10133;50.956;17.276;2023-03-01T14:38:34;17.73;;;10.67;;
19942;SDS011;10133;50.956;17.276;2023-03-01T14:41:07;17.00;;;10.67;;
19942;SDS011;10133;50.956;17.276;2023-03-01T14:43:43;18.13;;;10.77;;
19942;SDS011;10133;50.956;17.276;2023-03-01T14:46:20;18.77;;;10.53;;
19942;SDS011;10133;50.956;17.276;2023-03-01T14:51:51;26.57;;;13.80;;
19942;SDS011;10133;50.956;17.276;2023-03-01T14:54:35;17.90;;;10.43;;
19942;SDS011;10133;50.956;17.276;2023-03-01T14:57:14;17.07;;;10.00;;
19942;SDS011;10133;50.956;17.276;2023-03-01T14:59:45;38.00;;;14.17;;
19942;SDS011;10133;50.956;17.276;2023-03-01T15:02:15;36.93;;;15.83;;
19942;SDS011;10133;50.956;17.276;2023-03-01T15:04:46;24.43;;;11.17;;
19942;SDS011;10133;50.956;17.276;2023-03-01T15:07:16;21.13;;;10.40;;
19942;SDS011;10133;50.956;17.276;2023-03-01T15:09:44;16.47;;;8.67;;
19942;SDS011;10133;50.956;17.276;2023-03-01T15:14:54;27.30;;;13.07;;
19942;SDS011;10133;50.956;17.276;2023-03-01T15:17:33;21.97;;;10.83;;
19942;SDS011;10133;50.956;17.276;2023-03-01T15:20:03;44.57;;;26.27;;
19942;SDS011;10133;50.956;17.276;2023-03-01T15:22:33;73.23;;;39.20;;
19942;SDS011;10133;50.956;17.276;2023-03-01T15:25:01;39.40;;;19.17;;
19942;SDS011;10133;50.956;17.276;2023-03-01T15:27:28;25.57;;;14.07;;
19942;SDS011;10133;50.956;17.276;2023-03-01T15:29:57;612.67;;;403.73;;
19942;SDS011;10133;50.956;17.276;2023-03-01T15:32:32;275.67;;;132.00;;
19942;SDS011;10133;50.956;17.276;2023-03-01T15:35:09;120.03;;;56.10;;
19942;SDS011;10133;50.956;17.276;2023-03-01T15:41:02;42.17;;;21.33;;
19942;SDS011;10133;50.956;17.276;2023-03-01T15:46:45;32.03;;;15.73;;
19942;SDS011;10133;50.956;17.276;2023-03-01T15:49:05;273.87;;;68.07;;
19942;SDS011;10133;50.956;17.276;2023-03-01T15:52:32;1004.83;;;337.97;;
19942;SDS011;10133;50.956;17.276;2023-03-01T15:55:06;582.17;;;142.43;;
19942;SDS011;10133;50.956;17.276;2023-03-01T15:57:47;550.90;;;151.33;;
19942;SDS011;10133;50.956;17.276;2023-03-01T16:00:15;807.77;;;278.13;;
19942;SDS011;10133;50.956;17.276;2023-03-01T16:02:44;821.87;;;222.37;;
19942;SDS011;10133;50.956;17.276;2023-03-01T16:07:50;509.83;;;115.67;;
19942;SDS011;10133;50.956;17.276;2023-03-01T16:10:18;417.93;;;101.67;;
19942;SDS011;10133;50.956;17.276;2023-03-01T16:12:45;1518.47;;;557.30;;
19942;SDS011;10133;50.956;17.276;2023-03-01T16:15:15;1452.70;;;477.13;;
19942;SDS011;10133;50.956;17.276;2023-03-01T16:17:45;1418.30;;;450.83;;
19942;SDS011;10133;50.956;17.276;2023-03-01T16:20:12;1110.63;;;326.73;;
19942;SDS011;10133;50.956;17.276;2023-03-01T16:22:53;1286.57;;;408.47;;
19942;SDS011;10133;50.956;17.276;2023-03-01T16:25:20;1425.20;;;458.20;;
19942;SDS011;10133;50.956;17.276;2023-03-01T16:27:48;1627.97;;;540.10;;
19942;SDS011;10133;50.956;17.276;2023-03-01T16:30:17;1821.87;;;568.93;;
19942;SDS011;10133;50.956;17.276;2023-03-01T16:32:47;1650.70;;;528.27;;
19942;SDS011;10133;50.956;17.276;2023-03-01T16:35:16;1704.50;;;561.97;;